Time;durP1;ratioP1;P1;durP2;ratioP2;P2;SDS_P1;SDS_P2;PMS_P1;PMS_P2;Temp;Humidity;BMP_temperature;BMP_pressure;BME280_temperature;BME280_humidity;BME280_pressure;Samples;Min_cycle;Max_cycle;Signal;HPM_P1;HPM_P2
2021/11/06 00:02:24;;;;;;;19.02;11.65;;;;;;;7.92;86.08;101256.45;1667645;85;27631;-80
2021/11/06 00:04:52;;;;;;;22.17;12.88;;;;;;;7.94;86.16;101250.47;1599164;85;26072;-81
2021/11/06 00:07:19;;;;;;;16.32;12.07;;;;;;;7.95;86.06;101260.16;1642978;84;25900;-81
2021/11/06 00:09:46;;;;;;;20.05;11.95;;;;;;;7.96;86.11;101259.64;1688961;84;25902;-81
2021/11/06 00:12:13;;;;;;;18.95;13.45;;;;;;;7.96;86.04;101267.15;1686905;84;26474;-82
2021/11/06 00:14:40;;;;;;;20.32;11.70;;;;;;;7.96;86.05;101265.81;1625010;84;27633;-83
2021/11/06 00:17:07;;;;;;;18.30;13.05;;;;;;;7.99;86.08;101264.67;1641952;85;25890;-82
2021/11/06 00:19:34;;;;;;;15.83;10.98;;;;;;;7.98;86.03;101273.17;1688023;83;25718;-82
2021/11/06 00:22:01;;;;;;;20.82;13.08;;;;;;;7.99;86.13;101264.67;1687598;84;25810;-82
2021/11/06 00:24:28;;;;;;;20.25;13.58;;;;;;;7.99;86.12;101270.02;1620367;84;26110;-82
2021/11/06 00:26:55;;;;;;;20.37;13.08;;;;;;;7.99;86.15;101270.02;1640921;84;27311;-81
2021/11/06 00:29:22;;;;;;;22.32;14.80;;;;;;;7.99;86.27;101266.01;1688982;84;25932;-82
2021/11/06 00:31:50;;;;;;;21.05;14.45;;;;;;;8.01;86.21;101272.03;1689609;84;25783;-82
2021/11/06 00:34:17;;;;;;;21.12;14.13;;;;;;;8.02;86.28;101273.72;1626015;85;25884;-81
2021/11/06 00:36:44;;;;;;;22.67;14.50;;;;;;;7.99;86.45;101266.86;1644952;84;25876;-83
2021/11/06 00:39:11;;;;;;;23.30;14.07;;;;;;;7.99;86.49;101266.01;1689584;84;28273;-81
2021/11/06 00:41:38;;;;;;;22.90;14.33;;;;;;;7.99;86.47;101270.86;1689203;84;25837;-82
2021/11/06 00:44:05;;;;;;;21.57;14.83;;;;;;;8.00;86.47;101279.70;1612854;84;25827;-82
2021/11/06 00:46:32;;;;;;;24.15;15.38;;;;;;;8.00;86.54;101277.04;1637493;84;25819;-83
2021/11/06 00:48:59;;;;;;;25.10;16.17;;;;;;;7.99;86.58;101291.36;1689077;84;25730;-82
2021/11/06 00:51:26;;;;;;;26.27;17.70;;;;;;;8.00;86.65;101295.20;1683677;84;28265;-82
2021/11/06 00:53:53;;;;;;;20.75;15.38;;;;;;;8.00;86.68;101288.52;1627116;85;25772;-82
2021/11/06 00:56:21;;;;;;;26.27;17.92;;;;;;;8.03;86.80;101292.72;1627502;84;26167;-82
2021/11/06 00:58:47;;;;;;;23.20;15.68;;;;;;;8.02;86.76;101295.88;1662143;84;25508;-82
2021/11/06 01:01:14;;;;;;;24.35;18.00;;;;;;;8.04;86.98;101290.41;1690157;84;25309;-82
2021/11/06 01:03:42;;;;;;;22.05;16.87;;;;;;;8.04;86.91;101305.08;1668085;84;27323;-82
2021/11/06 01:06:09;;;;;;;25.30;16.73;;;;;;;8.04;87.04;101297.89;1625625;84;26005;-82
2021/11/06 01:08:37;;;;;;;24.80;17.48;;;;;;;8.04;86.95;101301.08;1663291;84;25908;-81
2021/11/06 01:11:05;;;;;;;24.35;17.40;;;;;;;8.05;86.99;101300.92;1687145;84;26193;-82
2021/11/06 01:13:32;;;;;;;23.10;16.87;;;;;;;8.05;87.04;101298.25;1666922;84;25929;-81
2021/11/06 01:16:01;;;;;;;23.15;16.85;;;;;;;8.05;87.09;101294.25;1669404;84;26630;-83
2021/11/06 01:18:28;;;;;;;25.43;17.45;;;;;;;8.08;87.15;101298.45;1661946;84;25863;-81
2021/11/06 01:20:55;;;;;;;22.48;16.00;;;;;;;8.08;87.14;101293.11;1685309;84;25905;-82
2021/11/06 01:23:22;;;;;;;25.60;18.25;;;;;;;8.06;87.22;101295.91;1669360;84;26005;-82
2021/11/06 01:25:49;;;;;;;29.32;18.73;;;;;;;8.06;87.12;101296.43;1646274;84;25823;-81
2021/11/06 01:28:16;;;;;;;27.27;19.45;;;;;;;8.06;87.22;101299.91;1669711;84;27529;-82
2021/11/06 01:30:43;;;;;;;26.23;18.87;;;;;;;8.07;87.27;101296.75;1688734;84;25930;-81
2021/11/06 01:33:10;;;;;;;25.68;18.87;;;;;;;8.08;87.31;101309.97;1667204;84;25829;-81
2021/11/06 01:35:37;;;;;;;25.23;19.15;;;;;;;8.08;87.54;101305.11;1623942;84;25914;-82
2021/11/06 01:38:04;;;;;;;27.40;18.48;;;;;;;8.07;87.35;101301.60;1668085;84;25894;-82
2021/11/06 01:40:31;;;;;;;27.45;19.85;;;;;;;8.07;87.40;101318.95;1686974;84;28207;-82
2021/11/06 01:42:58;;;;;;;33.65;20.62;;;;;;;8.07;87.58;101310.94;1667584;84;25572;-82
2021/11/06 01:45:26;;;;;;;23.35;18.15;;;;;;;8.07;87.69;101320.77;1621421;84;25848;-82
2021/11/06 01:47:54;;;;;;;30.72;19.85;;;;;;;8.07;87.92;101318.10;1664319;85;25946;-82
2021/11/06 01:50:24;;;;;;;33.38;20.88;;;;;;;8.07;87.83;101319.44;1688449;84;25781;-82
2021/11/06 01:52:53;;;;;;;27.70;19.52;;;;;;;8.05;87.73;101322.27;1686886;84;26096;-82
2021/11/06 01:55:21;;;;;;;28.83;21.20;;;;;;;8.03;87.72;101316.24;1621733;84;25892;-82
2021/11/06 01:57:49;;;;;;;30.52;20.80;;;;;;;8.03;87.79;101320.73;1631082;86;25944;-82
2021/11/06 02:00:22;;;;;;;29.85;21.20;;;;;;;8.01;87.84;101321.38;1665329;85;26603;-82
2021/11/06 02:02:49;;;;;;;30.68;21.35;;;;;;;8.00;87.92;101317.88;1668867;84;25868;-82
2021/11/06 02:05:16;;;;;;;30.37;21.25;;;;;;;8.01;87.98;101316.89;1617906;84;27533;-82
2021/11/06 02:07:44;;;;;;;33.58;22.62;;;;;;;7.97;88.11;101311.52;1638378;84;25877;-82
2021/11/06 02:10:13;;;;;;;31.37;21.00;;;;;;;7.96;88.00;101313.84;1639069;84;26635;-82
2021/11/06 02:12:42;;;;;;;28.50;20.62;;;;;;;7.94;87.88;101317.16;1663538;84;25899;-81
2021/11/06 02:15:12;;;;;;;28.83;19.87;;;;;;;7.92;88.06;101331.14;1679478;84;26564;-82
2021/11/06 02:17:41;;;;;;;29.05;21.85;;;;;;;7.92;88.43;101327.63;1639923;84;27593;-83
2021/11/06 02:20:09;;;;;;;31.37;22.70;;;;;;;7.93;88.40;101343.50;1664161;84;26041;-82
2021/11/06 02:22:36;;;;;;;29.42;21.05;;;;;;;7.95;88.53;101344.67;1680343;84;25895;-81
2021/11/06 02:25:04;;;;;;;30.23;21.60;;;;;;;7.96;89.07;101334.33;1630937;86;25829;-82
2021/11/06 02:27:32;;;;;;;40.30;24.12;;;;;;;7.96;88.97;101333.84;1604623;86;25913;-82
2021/11/06 02:29:59;;;;;;;35.83;23.10;;;;;;;7.96;88.66;101333.84;1624929;84;27211;-81
2021/11/06 02:32:26;;;;;;;32.63;21.52;;;;;;;7.97;88.94;101334.69;1674183;84;26006;-82
2021/11/06 02:34:53;;;;;;;32.28;23.75;;;;;;;7.97;88.96;101332.87;1683885;84;25963;-82
2021/11/06 02:37:20;;;;;;;33.42;22.77;;;;;;;7.97;89.02;101328.86;1622437;84;26597;-82
2021/11/06 02:39:47;;;;;;;31.75;21.45;;;;;;;7.98;89.25;101330.53;1607456;86;25918;-81
2021/11/06 02:42:15;;;;;;;35.17;23.38;;;;;;;7.98;88.98;101329.68;1680115;84;27505;-82
2021/11/06 02:44:42;;;;;;;30.57;23.07;;;;;;;8.01;88.90;101337.39;1629432;86;25891;-82
2021/11/06 02:47:09;;;;;;;30.45;22.60;;;;;;;8.02;89.09;101337.23;1604912;86;25878;-82
2021/11/06 02:49:36;;;;;;;29.48;23.18;;;;;;;8.02;88.80;101337.23;1607440;86;26315;-82
2021/11/06 02:52:04;;;;;;;30.43;21.85;;;;;;;8.03;88.90;101334.92;1655617;86;26547;-82
2021/11/06 02:54:31;;;;;;;29.25;21.57;;;;;;;8.03;88.99;101338.08;1659491;86;28205;-82
2021/11/06 02:56:59;;;;;;;28.95;21.82;;;;;;;8.03;88.81;101334.08;1628556;84;26718;-82
2021/11/06 02:59:26;;;;;;;26.27;20.72;;;;;;;8.03;88.78;101339.41;1637467;84;25979;-83
2021/11/06 03:01:53;;;;;;;29.72;20.65;;;;;;;8.02;88.87;101337.23;1658534;86;25816;-83
2021/11/06 03:04:21;;;;;;;31.00;20.37;;;;;;;8.02;88.75;101333.23;1683788;84;25332;-82
2021/11/06 03:06:49;;;;;;;29.27;22.50;;;;;;;8.03;88.71;101335.41;1618458;85;27542;-82
2021/11/06 03:09:16;;;;;;;30.72;22.27;;;;;;;8.02;88.64;101326.56;1616761;85;26042;-82
2021/11/06 03:11:43;;;;;;;27.20;20.72;;;;;;;8.03;88.54;101333.59;1669338;85;25979;-82
2021/11/06 03:14:12;;;;;;;28.85;20.72;;;;;;;8.03;88.54;101336.74;1667607;85;25882;-82
2021/11/06 03:16:41;;;;;;;32.70;21.42;;;;;;;8.03;88.42;101328.25;1599758;85;25891;-83
2021/11/06 03:19:09;;;;;;;27.20;19.95;;;;;;;8.03;88.33;101330.92;1594948;85;27519;-82
2021/11/06 03:21:36;;;;;;;23.67;18.87;;;;;;;8.05;88.34;101325.42;1626937;85;25587;-83
2021/11/06 03:24:04;;;;;;;27.05;19.40;;;;;;;8.04;88.32;101331.77;1645315;85;26375;-83
2021/11/06 03:26:31;;;;;;;24.10;18.15;;;;;;;8.03;88.29;101346.92;1575646;86;26761;-82
2021/11/06 03:28:58;;;;;;;26.52;20.20;;;;;;;8.03;88.31;101345.59;1596957;86;25803;-82
2021/11/06 03:31:25;;;;;;;23.77;18.32;;;;;;;8.02;88.16;101339.90;1644232;86;27443;-82
2021/11/06 03:33:52;;;;;;;23.35;18.32;;;;;;;8.04;88.10;101342.44;1645836;86;26147;-82
2021/11/06 03:36:19;;;;;;;25.95;19.02;;;;;;;8.03;88.04;101345.59;1595901;86;25947;-82
2021/11/06 03:38:46;;;;;;;23.27;17.98;;;;;;;8.04;87.99;101341.91;1588442;86;25945;-82
2021/11/06 03:41:13;;;;;;;22.37;17.23;;;;;;;8.06;87.81;101337.78;1644744;86;26394;-82
2021/11/06 03:43:41;;;;;;;20.82;16.37;;;;;;;8.06;87.65;101344.45;1617358;86;28363;-82
2021/11/06 03:46:08;;;;;;;21.05;15.75;;;;;;;8.06;87.61;101340.45;1594560;86;25377;-81
2021/11/06 03:48:35;;;;;;;18.87;15.32;;;;;;;8.06;87.50;101329.78;1594796;86;25973;-82
2021/11/06 03:51:02;;;;;;;21.50;16.02;;;;;;;8.05;87.31;101331.60;1622850;86;26579;-82
2021/11/06 03:53:29;;;;;;;20.05;16.07;;;;;;;8.08;87.28;101340.65;1645115;86;25870;-82
2021/11/06 03:55:56;;;;;;;18.37;14.53;;;;;;;8.07;87.14;101340.29;1594704;86;27969;-82
2021/11/06 03:58:23;;;;;;;19.02;14.60;;;;;;;8.09;86.99;101340.12;1596973;86;25930;-83
2021/11/06 04:00:50;;;;;;;17.67;14.10;;;;;;;8.08;86.90;101335.31;1621792;86;25869;-82
2021/11/06 04:03:18;;;;;;;17.60;14.13;;;;;;;8.09;86.68;101330.79;1647274;86;26493;-82
2021/11/06 04:05:45;;;;;;;19.85;14.73;;;;;;;8.07;86.66;101332.29;1576430;86;25941;-82
2021/11/06 04:08:12;;;;;;;21.70;14.60;;;;;;;8.10;86.57;101335.15;1593940;86;27530;-82
2021/11/06 04:10:39;;;;;;;18.15;15.00;;;;;;;8.09;86.46;101328.13;1644932;86;25974;-82
2021/11/06 04:13:06;;;;;;;18.87;15.38;;;;;;;8.09;86.46;101333.45;1645250;86;25943;-82
2021/11/06 04:15:33;;;;;;;15.00;12.60;;;;;;;8.09;86.28;101337.46;1617800;86;26077;-82
2021/11/06 04:18:00;;;;;;;19.00;14.80;;;;;;;8.09;86.20;101342.80;1588536;85;25365;-82
2021/11/06 04:20:27;;;;;;;19.27;15.55;;;;;;;8.08;86.10;101334.47;1645330;85;28219;-83
2021/11/06 04:22:54;;;;;;;20.08;14.43;;;;;;;8.07;86.07;101332.77;1665015;85;26044;-82
2021/11/06 04:25:21;;;;;;;17.40;14.25;;;;;;;8.05;86.05;101332.94;1591838;85;25894;-82
2021/11/06 04:27:49;;;;;;;19.77;14.65;;;;;;;8.04;86.05;101333.09;1665513;85;25798;-82
2021/11/06 04:30:16;;;;;;;16.90;13.55;;;;;;;8.03;86.04;101336.25;1633858;85;26059;-83
2021/11/06 04:32:43;;;;;;;17.73;12.95;;;;;;;8.04;85.88;101330.43;1609624;85;28207;-82
2021/11/06 04:35:11;;;;;;;17.37;14.00;;;;;;;8.04;85.82;101330.43;1630608;85;25901;-83
2021/11/06 04:37:38;;;;;;;15.48;13.35;;;;;;;8.05;85.85;101328.94;1666492;85;25905;-82
2021/11/06 04:40:08;;;;;;;17.23;12.75;;;;;;;8.06;85.82;101324.44;1634635;85;26436;-82
2021/11/06 04:42:36;;;;;;;18.30;15.15;;;;;;;8.04;85.61;101325.09;1591739;85;25884;-82
2021/11/06 04:45:05;;;;;;;15.45;12.47;;;;;;;8.03;85.58;101330.92;1612212;85;27490;-82
2021/11/06 04:47:32;;;;;;;16.77;13.68;;;;;;;8.04;85.68;101330.43;1663983;85;25853;-82
2021/11/06 04:50:00;;;;;;;17.37;14.00;;;;;;;8.05;85.66;101323.59;1635216;85;25860;-82
2021/11/06 04:52:27;;;;;;;17.87;13.65;;;;;;;8.06;85.54;101324.44;1614923;85;26360;-82
2021/11/06 04:54:55;;;;;;;15.35;12.90;;;;;;;8.06;85.45;101327.11;1632975;85;25835;-82
2021/11/06 04:57:22;;;;;;;16.23;14.05;;;;;;;8.07;85.34;101326.10;1633031;85;27601;-82
2021/11/06 04:59:50;;;;;;;21.50;13.50;;;;;;;8.07;85.28;101339.44;1633748;85;26022;-82
2021/11/06 05:02:17;;;;;;;20.12;14.85;;;;;;;8.09;85.38;101344.13;1612176;85;26055;-83
2021/11/06 05:04:44;;;;;;;17.45;12.73;;;;;;;8.08;85.19;101347.32;1637394;85;26687;-82
2021/11/06 05:07:12;;;;;;;18.42;14.07;;;;;;;8.09;85.11;101348.13;1635205;85;44896;-83
2021/11/06 05:09:39;;;;;;;17.30;13.28;;;;;;;8.10;85.16;101351.16;1662271;85;27567;-81
2021/11/06 05:12:07;;;;;;;19.95;14.18;;;;;;;8.11;85.24;101351.00;1614562;85;26305;-82
2021/11/06 05:14:34;;;;;;;16.75;13.00;;;;;;;8.12;85.09;101352.69;1611268;85;25951;-81
2021/11/06 05:17:02;;;;;;;14.98;11.57;;;;;;;8.13;84.93;101352.17;1632845;85;26146;-81
2021/11/06 05:19:29;;;;;;;19.12;14.13;;;;;;;8.14;85.01;101356.53;1664142;85;26134;-82
2021/11/06 05:21:56;;;;;;;15.78;13.95;;;;;;;8.13;85.09;101358.35;1613103;85;27677;-82
2021/11/06 05:24:23;;;;;;;23.50;14.58;;;;;;;8.14;85.05;101360.53;1635307;85;25991;-82
2021/11/06 05:26:50;;;;;;;22.60;15.18;;;;;;;8.14;85.15;101353.86;1652090;84;25812;-83
2021/11/06 05:29:18;;;;;;;22.50;15.55;;;;;;;8.11;85.13;101360.34;1657649;85;25921;-82
2021/11/06 05:31:45;;;;;;;19.67;15.58;;;;;;;8.13;85.29;101369.03;1619370;85;26286;-82
2021/11/06 05:34:12;;;;;;;20.17;14.85;;;;;;;8.13;85.22;101361.51;1621175;84;28187;-84
2021/11/06 05:36:39;;;;;;;18.90;14.95;;;;;;;8.12;85.35;101369.19;1658828;84;25391;-81
2021/11/06 05:39:06;;;;;;;21.80;15.10;;;;;;;8.11;85.38;101363.49;1667492;84;26087;-82
2021/11/06 05:41:33;;;;;;;17.20;13.38;;;;;;;8.11;85.50;101374.17;1637557;85;25813;-82
2021/11/06 05:44:00;;;;;;;17.48;13.90;;;;;;;8.11;85.54;101375.02;1605246;85;25875;-82
2021/11/06 05:46:27;;;;;;;18.40;14.83;;;;;;;8.11;85.64;101372.83;1658498;85;27530;-82
2021/11/06 05:48:54;;;;;;;21.57;14.68;;;;;;;8.12;85.67;101375.38;1671298;85;25881;-82
2021/11/06 05:51:21;;;;;;;20.52;15.40;;;;;;;8.11;85.62;101379.50;1630372;85;25882;-81
2021/11/06 05:53:48;;;;;;;19.48;15.03;;;;;;;8.14;85.72;101380.55;1628866;85;25983;-82
2021/11/06 05:56:16;;;;;;;20.68;16.60;;;;;;;8.15;85.71;101384.39;1638205;84;25944;-83
2021/11/06 05:58:43;;;;;;;19.52;15.25;;;;;;;8.14;85.76;101384.06;1677640;84;28299;-82
2021/11/06 06:01:10;;;;;;;19.92;15.03;;;;;;;8.16;85.84;101382.56;1597035;85;26038;-82
2021/11/06 06:03:37;;;;;;;20.35;16.12;;;;;;;8.15;85.88;101387.05;1634603;84;26609;-82
2021/11/06 06:06:04;;;;;;;22.13;16.57;;;;;;;8.14;86.01;101385.39;1658336;84;26683;-83
2021/11/06 06:08:31;;;;;;;22.15;15.03;;;;;;;8.16;85.94;101382.56;1683468;84;25889;-83
2021/11/06 06:10:58;;;;;;;20.92;15.95;;;;;;;8.18;85.97;101383.25;1601104;85;27419;-82
2021/11/06 06:13:27;;;;;;;22.52;15.48;;;;;;;8.19;85.99;101386.28;1639222;84;26019;-82
2021/11/06 06:15:54;;;;;;;24.02;15.48;;;;;;;8.18;85.90;101384.09;1628736;85;25998;-83
2021/11/06 06:18:21;;;;;;;22.37;15.10;;;;;;;8.19;86.15;101383.09;1676450;84;25999;-83
2021/11/06 06:20:49;;;;;;;22.48;15.70;;;;;;;8.19;86.07;101383.61;1658763;84;26059;-82
2021/11/06 06:23:16;;;;;;;21.73;16.07;;;;;;;8.18;86.09;101396.59;1624851;84;27636;-82
2021/11/06 06:25:43;;;;;;;22.37;16.00;;;;;;;8.19;86.07;101392.95;1681261;84;26753;-81
2021/11/06 06:28:10;;;;;;;19.95;14.98;;;;;;;8.20;86.10;101400.80;1657672;86;25880;-82
2021/11/06 06:30:38;;;;;;;22.10;15.70;;;;;;;8.21;86.05;101405.64;1604952;85;26064;-81
2021/11/06 06:33:05;;;;;;;22.93;14.75;;;;;;;8.22;86.11;101405.97;1617802;85;25758;-82
2021/11/06 06:35:32;;;;;;;20.40;14.00;;;;;;;8.22;86.04;101412.16;1622738;84;27588;-83
2021/11/06 06:38:03;;;;;;;21.68;15.23;;;;;;;8.23;86.04;101413.81;1674480;84;25943;-82
2021/11/06 06:40:31;;;;;;;20.72;14.03;;;;;;;8.25;85.96;101415.02;1626884;84;25892;-83
2021/11/06 06:42:58;;;;;;;21.50;14.43;;;;;;;8.25;85.93;101410.56;1635442;84;26493;-82
2021/11/06 06:45:25;;;;;;;19.42;13.03;;;;;;;8.26;85.86;101414.05;1630015;84;26588;-82
2021/11/06 06:47:53;;;;;;;20.23;13.68;;;;;;;8.29;85.82;101419.09;1676569;84;26975;-82
2021/11/06 06:50:20;;;;;;;22.30;14.70;;;;;;;8.30;85.78;101413.59;1617239;85;25532;-81
2021/11/06 06:52:47;;;;;;;22.13;14.75;;;;;;;8.32;85.89;101415.61;1601167;85;25857;-82
2021/11/06 06:55:14;;;;;;;17.75;13.45;;;;;;;8.35;85.64;101415.81;1642461;84;25942;-82
2021/11/06 06:57:42;;;;;;;15.00;11.30;;;;;;;8.36;85.70;101426.33;1674923;84;26021;-82
2021/11/06 07:00:12;;;;;;;20.17;14.03;;;;;;;8.38;85.53;101430.20;1609738;84;27422;-83
2021/11/06 07:02:39;;;;;;;14.55;11.50;;;;;;;8.38;85.60;101436.87;1638461;86;25985;-83
2021/11/06 07:05:07;;;;;;;20.30;13.90;;;;;;;8.38;85.46;101440.36;1651994;84;25962;-82
2021/11/06 07:07:34;;;;;;;18.20;12.30;;;;;;;8.39;85.42;101440.72;1671303;84;26548;-84
2021/11/06 07:10:03;;;;;;;16.15;12.45;;;;;;;8.41;85.34;101435.22;1621735;84;25974;-81
2021/11/06 07:12:30;;;;;;;21.20;11.53;;;;;;;8.42;85.20;101440.42;1647441;85;27683;-82
2021/11/06 07:14:57;;;;;;;17.35;12.05;;;;;;;8.47;85.26;101433.27;1654485;84;25938;-81
2021/11/06 07:17:25;;;;;;;16.93;11.60;;;;;;;8.48;85.15;101442.48;1670036;85;26013;-82
2021/11/06 07:19:52;;;;;;;14.53;10.90;;;;;;;8.52;85.10;101453.69;1605160;85;25838;-81
2021/11/06 07:22:19;;;;;;;17.98;11.80;;;;;;;8.56;84.80;101449.72;1653660;84;25804;-82
2021/11/06 07:24:46;;;;;;;19.55;11.65;;;;;;;8.58;84.66;101447.73;1642873;84;28372;-82
2021/11/06 07:27:13;;;;;;;17.48;10.48;;;;;;;8.60;84.57;101451.08;1688976;84;25353;-82
2021/11/06 07:29:40;;;;;;;16.67;10.68;;;;;;;8.64;84.25;101456.97;1616123;84;26282;-82
2021/11/06 07:32:08;;;;;;;15.98;10.10;;;;;;;8.66;84.39;101460.33;1658793;84;26041;-82
2021/11/06 07:34:35;;;;;;;13.55;9.43;;;;;;;8.68;84.01;101455.19;1654080;84;25864;-82
2021/11/06 07:37:02;;;;;;;16.00;11.68;;;;;;;8.69;84.00;101465.34;1681965;84;27539;-82
2021/11/06 07:39:29;;;;;;;15.00;10.20;;;;;;;8.68;83.99;101472.55;1635998;84;26564;-82
2021/11/06 07:41:56;;;;;;;17.02;10.38;;;;;;;8.71;84.09;101476.22;1640989;86;26094;-84
2021/11/06 07:44:23;;;;;;;19.42;10.30;;;;;;;8.74;84.26;101469.74;1592786;87;25914;-84
2021/11/06 07:46:52;;;;;;;17.20;10.45;;;;;;;8.76;83.90;101477.10;1665412;86;26512;-83
2021/11/06 07:49:19;;;;;;;14.18;10.88;;;;;;;8.75;83.65;101474.92;1599176;86;27630;-84
2021/11/06 07:51:46;;;;;;;17.27;11.03;;;;;;;8.77;83.78;101470.27;1645383;84;25982;-83
2021/11/06 07:54:14;;;;;;;18.12;11.83;;;;;;;8.80;83.76;101473.13;1671360;84;25788;-83
2021/11/06 07:56:41;;;;;;;18.20;12.18;;;;;;;8.79;83.62;101473.62;1618622;86;26257;-83
2021/11/06 07:59:08;;;;;;;17.35;11.57;;;;;;;8.74;83.55;101479.94;1618124;85;25376;-84
2021/11/06 08:01:35;;;;;;;17.32;11.90;;;;;;;8.72;83.61;101485.09;1641821;85;27495;-84
2021/11/06 08:04:02;;;;;;;19.48;11.97;;;;;;;8.67;83.46;101484.69;1664058;85;25886;-84
2021/11/06 08:06:29;;;;;;;17.90;12.55;;;;;;;8.62;83.71;101475.80;1643193;84;25907;-85
2021/11/06 08:08:56;;;;;;;22.70;12.45;;;;;;;8.60;83.92;101486.32;1618987;84;26672;-84
2021/11/06 08:11:26;;;;;;;17.57;12.78;;;;;;;8.60;84.08;101485.80;1666406;84;25870;-84
2021/11/06 08:13:53;;;;;;;19.50;11.65;;;;;;;8.56;83.97;101491.10;1693945;84;27533;-83
2021/11/06 08:16:20;;;;;;;17.55;12.10;;;;;;;8.56;84.25;101492.44;1645121;84;25782;-90
2021/11/06 08:18:47;;;;;;;19.00;11.57;;;;;;;8.56;84.43;101491.10;1667789;84;25896;-89
2021/11/06 08:21:15;;;;;;;17.00;12.30;;;;;;;8.55;84.47;101493.45;1634181;85;26355;-89
2021/11/06 08:23:42;;;;;;;22.32;13.08;;;;;;;8.56;84.51;101493.77;1664131;84;25547;-89
2021/11/06 08:26:11;;;;;;;17.87;11.60;;;;;;;8.61;84.55;101497.33;1659134;84;27527;-89
2021/11/06 08:28:38;;;;;;;19.37;11.97;;;;;;;8.59;84.28;101493.48;1672618;84;25910;-89
2021/11/06 08:31:05;;;;;;;18.25;12.90;;;;;;;8.57;84.37;101499.96;1654241;84;25640;-88
2021/11/06 08:33:32;;;;;;;21.45;13.22;;;;;;;8.55;84.57;101500.94;1676593;84;25860;-89
2021/11/06 08:36:00;;;;;;;17.32;12.05;;;;;;;8.54;84.60;101501.09;1653074;84;25336;-90
2021/11/06 08:38:33;;;;;;;18.62;12.78;;;;;;;8.52;84.82;101494.58;1650221;84;27649;-91
2021/11/06 08:41:00;;;;;;;21.97;13.15;;;;;;;8.53;84.79;101502.11;1695743;84;25796;-90
2021/11/06 08:43:27;;;;;;;22.25;12.85;;;;;;;8.52;84.86;101511.09;1694806;84;26116;-89
2021/11/06 08:45:54;;;;;;;21.00;13.78;;;;;;;8.55;85.00;101502.80;1696031;84;25924;-88
2021/11/06 08:48:21;;;;;;;23.87;15.58;;;;;;;8.56;85.00;101509.80;1680273;84;25606;-88
2021/11/06 08:50:49;;;;;;;19.55;13.80;;;;;;;8.59;84.99;101512.66;1656400;84;27375;-89
2021/11/06 08:53:16;;;;;;;18.15;12.25;;;;;;;8.59;85.06;101512.17;1671767;84;25621;-88
2021/11/06 08:55:43;;;;;;;23.92;14.25;;;;;;;8.60;84.96;101517.03;1671767;84;25915;-89
2021/11/06 08:58:10;;;;;;;23.32;14.43;;;;;;;8.58;84.95;101522.50;1649267;84;25846;-88
2021/11/06 09:00:42;;;;;;;22.93;12.82;;;;;;;8.60;85.10;101515.69;1647644;84;25925;-89
2021/11/06 09:03:14;;;;;;;19.32;11.93;;;;;;;8.58;84.96;101515.82;1662599;85;27575;-88
2021/11/06 09:05:43;;;;;;;19.07;12.05;;;;;;;8.57;85.11;101514.16;1671728;84;25977;-87
2021/11/06 09:08:10;;;;;;;23.25;13.30;;;;;;;8.57;85.21;101510.64;1670069;84;25571;-88
2021/11/06 09:10:37;;;;;;;17.73;12.10;;;;;;;8.57;85.45;101517.31;1650728;84;25810;-88
2021/11/06 09:13:04;;;;;;;22.05;12.70;;;;;;;8.60;85.31;101513.02;1691200;84;25354;-90
2021/11/06 09:15:31;;;;;;;18.45;11.55;;;;;;;8.60;85.30;101527.19;1654514;84;28105;-88
2021/11/06 09:17:58;;;;;;;22.15;13.80;;;;;;;8.64;85.26;101530.42;1672884;84;25862;-87
2021/11/06 09:20:25;;;;;;;16.97;12.45;;;;;;;8.64;85.19;101535.77;1648563;84;25915;-87
2021/11/06 09:22:54;;;;;;;17.70;12.18;;;;;;;8.64;85.19;101535.24;1693502;84;25840;-88
2021/11/06 09:25:22;;;;;;;20.30;14.07;;;;;;;8.66;85.28;101545.28;1623391;84;26022;-86
2021/11/06 09:27:50;;;;;;;23.00;14.15;;;;;;;8.67;85.26;101536.28;1666698;84;27595;-87
2021/11/06 09:30:17;;;;;;;16.65;12.18;;;;;;;8.70;85.34;101536.00;1666688;84;25925;-87
2021/11/06 09:32:45;;;;;;;19.77;14.45;;;;;;;8.72;85.27;101535.84;1692812;84;25334;-88
2021/11/06 09:35:12;;;;;;;19.20;13.65;;;;;;;8.72;85.14;101534.02;1642559;86;25909;-87
2021/11/06 09:37:40;;;;;;;21.87;14.73;;;;;;;8.73;85.16;101535.67;1589538;87;25954;-87
2021/11/06 09:40:08;;;;;;;20.95;15.28;;;;;;;8.73;85.14;101526.81;1631674;87;27336;-88
2021/11/06 09:42:39;;;;;;;21.45;13.85;;;;;;;8.73;85.10;101524.98;1661269;86;25814;-88
2021/11/06 09:45:10;;;;;;;23.83;14.55;;;;;;;8.75;85.06;101524.34;1638758;84;26487;-88
2021/11/06 09:47:42;;;;;;;26.57;14.47;;;;;;;8.74;85.05;101524.02;1666993;85;26027;-88
2021/11/06 09:50:05;;;;;;;22.58;14.58;;;;;;;8.74;84.82;101517.33;1639271;86;25918;-88
2021/11/06 09:52:32;;;;;;;21.90;14.00;;;;;;;8.77;85.00;101519.68;1692356;84;27521;-90
2021/11/06 09:55:00;;;;;;;19.57;12.75;;;;;;;8.81;85.01;101517.56;1646317;84;25969;-89
2021/11/06 09:57:27;;;;;;;22.37;15.15;;;;;;;8.81;84.83;101512.22;1642821;84;25897;-89
2021/11/06 09:59:54;;;;;;;18.87;13.00;;;;;;;8.80;84.75;101505.19;1648529;84;26446;-90
2021/11/06 10:02:21;;;;;;;21.05;14.15;;;;;;;8.80;84.89;101506.03;1691121;84;25368;-89
2021/11/06 10:04:48;;;;;;;22.05;15.08;;;;;;;8.80;84.80;101506.52;1650357;84;27533;-92
2021/11/06 10:07:22;;;;;;;20.17;13.90;;;;;;;8.81;84.80;101513.55;1672150;84;25795;-89
2021/11/06 10:10:03;;;;;;;20.57;14.40;;;;;;;8.81;84.73;101510.89;1647105;84;25910;-91
2021/11/06 10:12:51;;;;;;;19.17;14.83;;;;;;;8.80;84.78;101507.37;1661670;86;25815;-84
2021/11/06 10:15:22;;;;;;;18.55;13.88;;;;;;;8.84;85.07;101507.89;1619801;84;29963;-83
2021/11/06 10:17:50;;;;;;;22.73;15.68;;;;;;;8.85;84.88;101514.44;1618443;87;28315;-89
2021/11/06 10:20:31;;;;;;;20.72;14.87;;;;;;;8.85;84.88;101509.59;1598705;86;26006;-89
2021/11/06 10:23:05;;;;;;;20.72;14.58;;;;;;;8.87;85.00;101500.43;1618281;86;25707;-87
2021/11/06 10:25:33;;;;;;;19.90;13.95;;;;;;;8.90;85.19;101501.92;1614502;86;25987;-86
2021/11/06 10:28:07;;;;;;;21.62;15.15;;;;;;;8.90;84.89;101504.11;1621030;87;25344;-87
2021/11/06 10:30:40;;;;;;;22.05;14.25;;;;;;;8.90;84.82;101489.91;1586054;86;27584;-87
2021/11/06 10:33:13;;;;;;;18.23;13.40;;;;;;;8.91;84.80;101501.80;1647500;86;26471;-88
2021/11/06 10:35:44;;;;;;;21.35;15.38;;;;;;;8.90;84.63;101504.59;1646486;86;25330;-88
2021/11/06 10:38:21;;;;;;;21.42;13.38;;;;;;;8.89;84.60;101505.61;1619569;86;25921;-88
2021/11/06 10:40:56;;;;;;;19.82;13.98;;;;;;;8.86;84.71;101502.73;1596223;86;25901;-89
2021/11/06 10:43:26;;;;;;;25.35;13.80;;;;;;;8.85;84.87;101497.07;1628267;86;27667;-88
2021/11/06 10:45:57;;;;;;;24.27;15.25;;;;;;;8.85;84.97;101497.07;1608184;86;25889;-88
2021/11/06 10:48:31;;;;;;;22.87;14.30;;;;;;;8.86;85.06;101497.40;1638903;86;25347;-89
2021/11/06 10:51:04;;;;;;;22.22;14.28;;;;;;;8.90;85.04;101500.10;1576795;86;25679;-88
2021/11/06 10:53:36;;;;;;;21.10;13.28;;;;;;;8.91;85.21;101488.44;1651959;86;25781;-88
2021/11/06 10:56:16;;;;;;;19.15;13.70;;;;;;;8.95;85.01;101491.14;1622702;87;27472;-88
2021/11/06 10:58:45;;;;;;;22.05;13.43;;;;;;;8.96;85.16;101493.32;1633767;86;25362;-88
2021/11/06 11:01:16;;;;;;;20.92;12.28;;;;;;;8.99;85.21;101486.31;1633202;86;25863;-88
2021/11/06 11:03:46;;;;;;;18.57;13.45;;;;;;;9.00;85.10;101479.47;1632585;87;25874;-88
2021/11/06 11:06:18;;;;;;;21.35;13.72;;;;;;;9.03;85.20;101480.50;1629346;86;25405;-88
2021/11/06 11:08:52;;;;;;;21.68;14.40;;;;;;;9.05;85.17;101473.17;1628864;86;27558;-89
2021/11/06 11:11:24;;;;;;;24.52;14.73;;;;;;;9.07;85.13;101476.52;1569834;89;25873;-88
2021/11/06 11:14:01;;;;;;;23.47;15.45;;;;;;;9.11;85.17;101473.06;1643944;86;25351;-88
2021/11/06 11:16:30;;;;;;;19.55;13.83;;;;;;;9.15;85.33;101469.89;1629938;86;26345;-88
2021/11/06 11:19:09;;;;;;;18.50;13.45;;;;;;;9.19;84.98;101473.11;1635657;86;25981;-89
2021/11/06 11:21:43;;;;;;;22.52;14.47;;;;;;;9.22;85.07;101470.11;1635551;86;27381;-89